Time;durP1;ratioP1;P1;durP2;ratioP2;P2;SDS_P1;SDS_P2;PMS_P1;PMS_P2;Temp;Humidity;BMP_temperature;BMP_pressure;BME280_temperature;BME280_humidity;BME280_pressure;Samples;Min_cycle;Max_cycle;Signal;HPM_P1;HPM_P2
2021/03/10 00:00:25;;;;;;;29.57;18.33;;;5.00;99.90;;;;;;5002924;28;20202;-73
2021/03/10 00:02:50;;;;;;;31.10;18.77;;;5.10;99.90;;;;;;5002546;28;20213;-75
2021/03/10 00:05:16;;;;;;;29.67;17.47;;;5.00;99.90;;;;;;5006432;28;20555;-74
2021/03/10 00:07:42;;;;;;;31.70;18.83;;;5.10;99.90;;;;;;5016951;28;20180;-75
2021/03/10 00:10:09;;;;;;;28.43;17.70;;;5.10;99.90;;;;;;5022446;28;20452;-75
2021/03/10 00:12:36;;;;;;;31.87;19.17;;;5.00;99.90;;;;;;5017314;28;20443;-74
2021/03/10 00:15:03;;;;;;;33.43;19.63;;;5.10;99.90;;;;;;5016869;28;20447;-75
2021/03/10 00:17:28;;;;;;;29.20;18.70;;;5.10;99.90;;;;;;5014870;28;20967;-74
2021/03/10 00:19:54;;;;;;;29.67;17.47;;;5.10;99.90;;;;;;5017132;28;20455;-75
2021/03/10 00:22:20;;;;;;;30.43;18.23;;;5.00;99.90;;;;;;5016361;28;20215;-75
2021/03/10 00:24:45;;;;;;;32.23;20.13;;;5.00;99.90;;;;;;5020066;28;20810;-74
2021/03/10 00:27:23;;;;;;;33.53;18.57;;;5.00;99.90;;;;;;5018031;28;20560;-75
2021/03/10 00:29:50;;;;;;;34.40;18.93;;;5.00;99.90;;;;;;5015506;28;20236;-74
2021/03/10 00:32:15;;;;;;;33.90;19.37;;;4.90;99.90;;;;;;5003161;28;20436;-75
2021/03/10 00:34:41;;;;;;;34.27;20.43;;;5.00;99.90;;;;;;5003407;28;20434;-75
2021/03/10 00:37:06;;;;;;;33.73;20.03;;;5.00;99.90;;;;;;5014147;28;20217;-75
2021/03/10 00:39:32;;;;;;;36.70;20.40;;;4.90;99.90;;;;;;5017328;28;20567;-75
2021/03/10 00:41:57;;;;;;;36.23;22.10;;;4.90;99.90;;;;;;5000664;28;20214;-74
2021/03/10 00:44:23;;;;;;;41.63;23.43;;;4.90;99.90;;;;;;5002007;28;20189;-75
2021/03/10 00:46:48;;;;;;;39.40;21.97;;;4.90;99.90;;;;;;5002010;28;20180;-75
2021/03/10 00:49:14;;;;;;;37.73;21.73;;;4.80;99.90;;;;;;5000192;28;20200;-75
2021/03/10 00:51:39;;;;;;;34.57;23.00;;;4.90;99.90;;;;;;5003707;28;20196;-75
2021/03/10 00:54:05;;;;;;;44.27;22.87;;;4.90;99.90;;;;;;5000273;28;20237;-75
2021/03/10 00:56:30;;;;;;;39.90;22.53;;;4.90;99.90;;;;;;5001324;28;20186;-75
2021/03/10 00:58:56;;;;;;;39.50;22.43;;;4.90;99.90;;;;;;5001726;28;20205;-75
2021/03/10 01:01:21;;;;;;;45.83;23.60;;;4.90;99.90;;;;;;5005349;28;20225;-76
2021/03/10 01:03:47;;;;;;;45.83;24.40;;;4.90;99.90;;;;;;5012708;28;20180;-74
2021/03/10 01:06:13;;;;;;;41.73;22.40;;;4.90;99.90;;;;;;5002716;28;20260;-75
2021/03/10 01:08:38;;;;;;;43.83;24.30;;;4.90;99.90;;;;;;4999565;28;20517;-74
2021/03/10 01:11:04;;;;;;;40.43;22.37;;;4.90;99.90;;;;;;5002256;28;20190;-75
2021/03/10 01:13:29;;;;;;;36.03;23.00;;;5.00;99.90;;;;;;5000973;28;20647;-74
2021/03/10 01:15:55;;;;;;;49.77;24.83;;;5.00;99.90;;;;;;4999667;28;20223;-74
2021/03/10 01:18:20;;;;;;;45.90;24.60;;;5.00;99.90;;;;;;5017531;28;20716;-74
2021/03/10 01:20:46;;;;;;;48.10;26.50;;;5.00;99.90;;;;;;5008658;28;20193;-75
2021/03/10 01:23:11;;;;;;;38.53;23.20;;;5.00;99.90;;;;;;5009955;28;20225;-75
2021/03/10 01:25:37;;;;;;;43.33;24.13;;;5.00;99.90;;;;;;5006420;28;20196;-75
2021/03/10 01:28:03;;;;;;;41.03;23.67;;;5.00;99.90;;;;;;5006454;28;20196;-75
2021/03/10 01:30:28;;;;;;;39.37;22.23;;;5.00;99.90;;;;;;5010415;28;20170;-75
2021/03/10 01:32:56;;;;;;;46.33;25.63;;;5.00;99.90;;;;;;4999976;28;20565;-74
2021/03/10 01:35:21;;;;;;;45.60;25.03;;;5.00;99.90;;;;;;5001709;28;20228;-75
2021/03/10 01:37:47;;;;;;;45.10;24.70;;;4.90;99.90;;;;;;5001040;28;20481;-73
2021/03/10 01:40:14;;;;;;;45.00;25.43;;;5.00;99.90;;;;;;5001278;28;20205;-74
2021/03/10 01:42:40;;;;;;;45.80;24.97;;;4.90;99.90;;;;;;5003006;28;20210;-75
2021/03/10 01:45:07;;;;;;;45.17;25.60;;;4.90;99.90;;;;;;5006190;28;20547;-75
2021/03/10 01:47:34;;;;;;;44.87;23.60;;;5.00;99.90;;;;;;5007246;28;20192;-75
2021/03/10 01:50:02;;;;;;;46.90;27.10;;;5.00;99.90;;;;;;5010271;28;20480;-75
2021/03/10 01:52:28;;;;;;;42.90;22.83;;;5.00;99.90;;;;;;5017694;28;20430;-75
2021/03/10 01:54:53;;;;;;;45.20;25.40;;;5.00;99.90;;;;;;5010599;28;20488;-75
2021/03/10 01:57:19;;;;;;;50.93;24.67;;;4.90;99.90;;;;;;5006287;28;20256;-75
2021/03/10 01:59:46;;;;;;;52.20;26.33;;;4.90;99.90;;;;;;5011350;28;20214;-75
2021/03/10 02:02:11;;;;;;;47.53;24.80;;;4.80;99.90;;;;;;5005765;28;20227;-75
2021/03/10 02:04:38;;;;;;;42.57;23.73;;;4.80;99.90;;;;;;5004713;28;20442;-75
2021/03/10 02:07:12;;;;;;;44.60;24.80;;;4.80;99.90;;;;;;5006393;28;20185;-75
2021/03/10 02:10:15;;;;;;;45.03;23.57;;;4.70;99.90;;;;;;5005417;28;20871;-75
2021/03/10 02:12:45;;;;;;;44.63;23.00;;;4.60;99.90;;;;;;5023598;28;20419;-75
2021/03/10 02:15:27;;;;;;;44.97;26.17;;;4.50;99.90;;;;;;5004456;28;20459;-75
2021/03/10 02:18:00;;;;;;;35.90;21.57;;;4.50;99.90;;;;;;5008493;28;20510;-75
2021/03/10 02:20:46;;;;;;;44.27;22.40;;;4.40;99.90;;;;;;5006669;28;20479;-75
2021/03/10 02:23:39;;;;;;;45.17;23.63;;;4.40;99.90;;;;;;5006187;28;20473;-75
2021/03/10 02:26:37;;;;;;;42.73;23.87;;;4.40;99.90;;;;;;5006956;28;20447;-75
2021/03/10 02:29:10;;;;;;;49.63;24.70;;;4.40;99.90;;;;;;4967434;28;20454;-76
2021/03/10 02:31:45;;;;;;;45.10;24.87;;;4.40;99.90;;;;;;5006141;28;20795;-74
2021/03/10 02:34:12;;;;;;;44.87;24.00;;;4.30;99.90;;;;;;5005612;28;20430;-75
2021/03/10 02:36:39;;;;;;;44.83;24.03;;;4.40;99.90;;;;;;5003461;28;20484;-74
2021/03/10 02:39:06;;;;;;;46.53;23.37;;;4.40;99.90;;;;;;5002111;28;20455;-75
2021/03/10 02:41:33;;;;;;;45.63;23.43;;;4.30;99.90;;;;;;5006108;28;20483;-76
2021/03/10 02:44:00;;;;;;;47.63;26.13;;;4.40;99.90;;;;;;5005106;28;20417;-75
2021/03/10 02:46:27;;;;;;;44.40;23.40;;;4.40;99.90;;;;;;5006214;28;20445;-75
2021/03/10 02:48:53;;;;;;;42.40;23.70;;;4.40;99.90;;;;;;5008692;28;20968;-75
2021/03/10 02:51:21;;;;;;;42.87;25.07;;;4.40;99.90;;;;;;5008964;28;20689;-75
2021/03/10 02:53:48;;;;;;;43.57;24.70;;;4.40;99.90;;;;;;5005876;28;20525;-75
2021/03/10 02:56:14;;;;;;;45.97;25.80;;;4.50;99.90;;;;;;5003504;28;20449;-74
2021/03/10 02:58:41;;;;;;;52.43;25.23;;;4.50;99.90;;;;;;5005535;28;20635;-75
2021/03/10 03:01:11;;;;;;;45.00;25.03;;;4.50;99.90;;;;;;5004170;28;20443;-75
2021/03/10 03:03:37;;;;;;;47.27;26.03;;;4.40;99.90;;;;;;5009532;28;20534;-75
2021/03/10 03:06:03;;;;;;;41.43;24.50;;;4.40;99.90;;;;;;5005003;28;20507;-75
2021/03/10 03:08:29;;;;;;;50.43;23.40;;;4.40;99.90;;;;;;5004162;28;20459;-75
2021/03/10 03:10:56;;;;;;;50.03;25.80;;;4.50;99.90;;;;;;5003454;28;20760;-75
2021/03/10 03:13:23;;;;;;;46.17;24.03;;;4.50;99.90;;;;;;5002807;28;20471;-75
2021/03/10 03:15:54;;;;;;;49.30;25.70;;;4.40;99.90;;;;;;5004058;28;20432;-74
2021/03/10 03:18:21;;;;;;;51.07;26.07;;;4.50;99.90;;;;;;5005176;28;20553;-74
2021/03/10 03:20:48;;;;;;;45.87;25.37;;;4.50;99.90;;;;;;5001939;28;20435;-75
2021/03/10 03:23:15;;;;;;;47.50;26.10;;;4.50;99.90;;;;;;5008098;28;20471;-74
2021/03/10 03:25:41;;;;;;;45.33;25.20;;;4.50;99.90;;;;;;5001757;28;20417;-75
2021/03/10 03:28:11;;;;;;;44.30;24.87;;;4.50;99.90;;;;;;5004540;28;20458;-75
2021/03/10 03:30:38;;;;;;;48.03;24.80;;;4.50;99.90;;;;;;5018819;28;20515;-75
2021/03/10 03:33:30;;;;;;;42.13;23.30;;;4.50;99.90;;;;;;5005486;28;20447;-75
2021/03/10 03:35:58;;;;;;;51.53;26.83;;;4.50;99.90;;;;;;5003516;28;20434;-75
2021/03/10 03:38:25;;;;;;;47.13;25.03;;;4.50;99.90;;;;;;5001985;28;20462;-75
2021/03/10 03:40:53;;;;;;;51.70;26.30;;;4.50;99.90;;;;;;5003078;28;20920;-75
2021/03/10 03:43:19;;;;;;;50.63;25.93;;;4.50;99.90;;;;;;5001056;28;20831;-74
2021/03/10 03:45:45;;;;;;;49.77;25.70;;;4.50;99.90;;;;;;5002344;28;20449;-75
2021/03/10 03:48:11;;;;;;;52.50;26.03;;;4.40;99.90;;;;;;5005629;28;20482;-75
2021/03/10 03:50:39;;;;;;;51.60;26.43;;;4.40;99.90;;;;;;5003146;28;20436;-73
2021/03/10 03:53:04;;;;;;;52.37;27.33;;;4.40;99.90;;;;;;5003116;28;20430;-75
2021/03/10 03:55:30;;;;;;;47.40;25.63;;;4.30;99.90;;;;;;5005786;28;20456;-75
2021/03/10 03:57:55;;;;;;;52.27;27.27;;;4.30;99.90;;;;;;5002017;28;20666;-75
2021/03/10 04:00:25;;;;;;;51.77;26.50;;;4.30;99.90;;;;;;5003933;28;20200;-75
2021/03/10 04:02:51;;;;;;;42.97;24.43;;;4.20;99.90;;;;;;5004677;28;20213;-74
2021/03/10 04:05:18;;;;;;;46.57;24.80;;;4.20;99.90;;;;;;5000971;28;20802;-75
2021/03/10 04:07:51;;;;;;;48.33;26.03;;;4.20;99.90;;;;;;5001741;28;20670;-74
2021/03/10 04:10:18;;;;;;;48.23;26.33;;;4.30;99.90;;;;;;5003510;28;20817;-74
2021/03/10 04:12:44;;;;;;;51.40;27.70;;;4.30;99.90;;;;;;5000122;28;20441;-75
2021/03/10 04:15:13;;;;;;;48.77;26.97;;;4.30;99.90;;;;;;5003847;28;20447;-75
2021/03/10 04:17:38;;;;;;;46.37;24.93;;;4.20;99.90;;;;;;5002305;28;20472;-76
2021/03/10 04:20:12;;;;;;;47.17;27.00;;;4.20;99.90;;;;;;5004141;28;20489;-75
2021/03/10 04:22:38;;;;;;;52.13;26.90;;;4.20;99.90;;;;;;5003983;28;20212;-75
2021/03/10 04:25:05;;;;;;;45.37;23.80;;;4.10;99.90;;;;;;5002796;28;21000;-74
2021/03/10 04:27:31;;;;;;;44.20;23.50;;;4.10;99.90;;;;;;5002343;28;20190;-75
2021/03/10 04:29:57;;;;;;;42.30;25.60;;;4.10;99.90;;;;;;5001712;28;20451;-75
2021/03/10 04:32:22;;;;;;;46.00;25.10;;;4.10;99.90;;;;;;5005741;28;20536;-75
2021/03/10 04:34:48;;;;;;;48.07;25.77;;;4.10;99.90;;;;;;4999437;28;20269;-75
2021/03/10 04:37:13;;;;;;;48.20;25.83;;;4.10;99.90;;;;;;5001426;28;20627;-75
2021/03/10 04:39:39;;;;;;;45.30;27.20;;;4.00;99.90;;;;;;5003374;28;20259;-75
2021/03/10 04:42:05;;;;;;;50.73;26.20;;;3.90;99.90;;;;;;5001434;28;20588;-74
2021/03/10 04:44:30;;;;;;;43.90;26.40;;;3.90;99.90;;;;;;5002396;28;20185;-74
2021/03/10 04:46:56;;;;;;;46.07;25.60;;;3.90;99.90;;;;;;5000966;28;20938;-74
2021/03/10 04:49:21;;;;;;;47.80;26.73;;;3.90;99.90;;;;;;5005926;28;20201;-75
2021/03/10 04:51:47;;;;;;;47.33;27.10;;;3.90;99.90;;;;;;5000685;28;20238;-74
2021/03/10 04:54:12;;;;;;;52.73;26.43;;;3.90;99.90;;;;;;5003217;28;20188;-74
2021/03/10 04:56:38;;;;;;;55.50;26.27;;;3.90;99.90;;;;;;5001847;28;20185;-74
2021/03/10 04:59:03;;;;;;;52.03;26.87;;;3.90;99.90;;;;;;5024514;28;20208;-75
2021/03/10 05:01:29;;;;;;;49.83;26.60;;;3.90;99.90;;;;;;5002856;28;20192;-73
2021/03/10 05:03:54;;;;;;;52.60;27.57;;;3.90;99.90;;;;;;4999944;28;20185;-75
2021/03/10 05:06:20;;;;;;;50.30;28.00;;;3.90;99.90;;;;;;5000790;28;20186;-75
2021/03/10 05:08:45;;;;;;;51.20;27.47;;;3.80;99.90;;;;;;5005246;28;20214;-75
2021/03/10 05:11:11;;;;;;;50.30;26.73;;;3.80;99.90;;;;;;4999342;28;20658;-75
2021/03/10 05:13:36;;;;;;;46.27;25.80;;;3.80;99.90;;;;;;5002255;28;20318;-75
2021/03/10 05:16:02;;;;;;;52.43;28.27;;;3.80;99.90;;;;;;5000786;28;20235;-75
2021/03/10 05:18:27;;;;;;;48.80;25.90;;;3.80;99.90;;;;;;5007217;28;20216;-75
2021/03/10 05:20:53;;;;;;;55.70;26.83;;;3.80;99.90;;;;;;5004983;28;20185;-75
2021/03/10 05:23:18;;;;;;;49.67;24.70;;;3.80;99.90;;;;;;5004290;28;20299;-75
2021/03/10 05:25:44;;;;;;;45.67;24.07;;;3.80;99.90;;;;;;5009130;28;20732;-75
2021/03/10 05:28:09;;;;;;;45.27;24.60;;;3.80;99.90;;;;;;5003120;28;20259;-75
2021/03/10 05:30:35;;;;;;;61.23;27.03;;;3.80;99.90;;;;;;5009044;28;20272;-74
2021/03/10 05:33:01;;;;;;;45.77;26.40;;;3.80;99.90;;;;;;5005226;28;20787;-74
2021/03/10 05:35:26;;;;;;;47.43;24.40;;;3.80;99.90;;;;;;5005462;28;20189;-75
2021/03/10 05:37:52;;;;;;;57.03;25.10;;;3.80;99.90;;;;;;5004036;28;20185;-74
2021/03/10 05:40:18;;;;;;;51.93;25.83;;;3.80;99.90;;;;;;5004355;28;20673;-75
2021/03/10 05:42:44;;;;;;;49.60;25.27;;;3.80;99.90;;;;;;5006216;28;20209;-75
2021/03/10 05:45:11;;;;;;;49.27;25.87;;;3.80;99.90;;;;;;5009224;28;20812;-74
2021/03/10 05:47:37;;;;;;;45.77;26.20;;;3.80;99.90;;;;;;5004034;28;20185;-70
2021/03/10 05:50:05;;;;;;;52.73;27.73;;;3.90;99.90;;;;;;5013178;28;20944;-71
2021/03/10 05:52:33;;;;;;;49.87;26.23;;;3.90;99.90;;;;;;5018664;28;20197;-71
2021/03/10 05:55:00;;;;;;;53.77;27.80;;;3.90;99.90;;;;;;5016483;28;20912;-71
2021/03/10 05:57:26;;;;;;;49.00;27.20;;;4.00;99.90;;;;;;5002588;28;20465;-71
2021/03/10 05:59:51;;;;;;;47.50;26.70;;;4.10;99.90;;;;;;5004787;28;20920;-70
2021/03/10 06:02:18;;;;;;;51.37;27.17;;;4.10;99.90;;;;;;5016082;28;20352;-71
2021/03/10 06:04:44;;;;;;;45.63;25.40;;;4.10;99.90;;;;;;5009315;28;20215;-71
2021/03/10 06:07:20;;;;;;;55.53;28.57;;;4.10;99.90;;;;;;5007088;28;20576;-71
2021/03/10 06:09:55;;;;;;;46.17;26.20;;;4.10;99.90;;;;;;5006721;28;20229;-71
2021/03/10 06:12:21;;;;;;;49.57;27.40;;;4.20;99.90;;;;;;5008852;28;20445;-71
2021/03/10 06:14:46;;;;;;;55.10;25.93;;;4.20;99.90;;;;;;5005558;28;20431;-71
2021/03/10 06:17:12;;;;;;;52.47;25.43;;;4.20;99.90;;;;;;5005021;28;20184;-70
2021/03/10 06:19:48;;;;;;;52.27;27.17;;;4.30;99.90;;;;;;5005823;28;20205;-70
2021/03/10 06:22:15;;;;;;;53.40;25.10;;;4.30;99.90;;;;;;5010385;28;20219;-71
2021/03/10 06:24:41;;;;;;;51.77;25.67;;;4.30;99.90;;;;;;5016083;28;20447;-71
2021/03/10 06:27:08;;;;;;;45.93;24.77;;;4.40;99.90;;;;;;5017046;28;20428;-71
2021/03/10 06:29:34;;;;;;;46.80;24.23;;;4.40;99.90;;;;;;5020464;28;20477;-71
2021/03/10 06:32:09;;;;;;;42.47;23.40;;;4.50;99.90;;;;;;5020628;28;20484;-70
2021/03/10 06:34:47;;;;;;;50.97;26.00;;;4.60;99.90;;;;;;5013528;28;20791;-71
2021/03/10 06:37:22;;;;;;;52.20;25.47;;;4.70;99.90;;;;;;5017547;28;20436;-71
2021/03/10 06:39:48;;;;;;;54.37;26.60;;;4.80;99.90;;;;;;5003569;28;20549;-68
2021/03/10 06:42:15;;;;;;;51.40;24.53;;;4.80;99.90;;;;;;5013588;28;20462;-71
2021/03/10 06:44:53;;;;;;;47.67;26.13;;;4.90;99.90;;;;;;5006566;28;20190;-71
2021/03/10 06:47:19;;;;;;;49.30;25.67;;;5.00;99.90;;;;;;5015889;28;20891;-71
2021/03/10 06:49:54;;;;;;;52.13;26.57;;;5.10;99.90;;;;;;5012168;28;20472;-70
2021/03/10 06:52:20;;;;;;;50.70;28.13;;;5.10;99.90;;;;;;5009192;28;20766;-70
2021/03/10 06:55:05;;;;;;;42.23;25.40;;;5.10;99.90;;;;;;5009604;28;20489;-70
2021/03/10 06:57:30;;;;;;;50.30;27.17;;;5.20;99.90;;;;;;5005759;28;20512;-71
2021/03/10 06:59:57;;;;;;;48.87;28.43;;;5.20;99.90;;;;;;5002466;28;20622;-71
2021/03/10 07:02:28;;;;;;;53.80;30.00;;;5.30;99.90;;;;;;4991827;28;20237;-71
2021/03/10 07:04:55;;;;;;;51.60;26.20;;;5.30;99.90;;;;;;5017597;28;20463;-72
2021/03/10 07:07:22;;;;;;;49.63;27.43;;;5.30;99.90;;;;;;5012278;28;20444;-71
2021/03/10 07:09:49;;;;;;;51.33;26.10;;;5.30;99.90;;;;;;5015363;28;20428;-69
2021/03/10 07:12:16;;;;;;;39.70;24.30;;;5.30;99.90;;;;;;5008924;28;20444;-69
2021/03/10 07:14:43;;;;;;;43.03;25.23;;;5.40;99.90;;;;;;5012992;28;20508;-69
2021/03/10 07:17:11;;;;;;;46.07;25.93;;;5.50;99.90;;;;;;5007649;28;20443;-69
2021/03/10 07:19:36;;;;;;;50.77;25.57;;;5.60;99.90;;;;;;5016184;28;20832;-69
2021/03/10 07:22:11;;;;;;;44.87;26.80;;;5.60;99.90;;;;;;5013938;28;20642;-67
2021/03/10 07:24:57;;;;;;;50.50;25.33;;;5.60;99.90;;;;;;5021763;28;20680;-70
2021/03/10 07:27:24;;;;;;;46.13;26.23;;;5.70;99.90;;;;;;5014284;28;20467;-69
2021/03/10 07:29:57;;;;;;;44.37;25.63;;;5.80;99.90;;;;;;5010278;28;20463;-69
2021/03/10 07:32:24;;;;;;;47.73;25.73;;;5.90;99.90;;;;;;5013739;28;20477;-70
2021/03/10 07:35:03;;;;;;;45.13;26.57;;;5.90;99.90;;;;;;5014384;28;20441;-70
2021/03/10 07:37:29;;;;;;;42.77;24.50;;;6.00;99.90;;;;;;5016342;28;20462;-70
2021/03/10 07:40:12;;;;;;;41.53;24.40;;;6.00;99.90;;;;;;5013825;28;20519;-70
2021/03/10 07:42:53;;;;;;;51.13;27.43;;;6.00;99.90;;;;;;5016425;28;20320;-70
2021/03/10 07:45:20;;;;;;;41.50;25.23;;;6.00;99.90;;;;;;5011249;28;20445;-70
2021/03/10 07:47:58;;;;;;;50.33;27.73;;;6.00;99.90;;;;;;5011659;28;20977;-71
2021/03/10 07:50:36;;;;;;;54.17;25.07;;;6.00;99.90;;;;;;5009053;28;20431;-70
2021/03/10 07:53:02;;;;;;;58.17;27.93;;;6.10;99.90;;;;;;4997583;28;20442;-69
2021/03/10 07:55:27;;;;;;;51.50;28.60;;;6.10;99.90;;;;;;5014564;28;20438;-70
2021/03/10 07:57:55;;;;;;;45.63;26.17;;;6.20;99.90;;;;;;5016078;28;20188;-70
2021/03/10 08:00:32;;;;;;;45.30;25.03;;;6.20;99.90;;;;;;5011330;28;20187;-70
2021/03/10 08:02:58;;;;;;;43.90;25.50;;;6.20;99.90;;;;;;5004739;28;20812;-70
2021/03/10 08:05:25;;;;;;;44.87;25.70;;;6.30;99.90;;;;;;5012919;28;20481;-70
2021/03/10 08:08:12;;;;;;;43.20;25.90;;;6.40;99.90;;;;;;5012989;28;20280;-69
2021/03/10 08:10:38;;;;;;;44.30;25.20;;;6.50;99.90;;;;;;5020174;28;20451;-70
2021/03/10 08:13:18;;;;;;;53.93;27.37;;;6.50;99.90;;;;;;5014387;28;20890;-70
2021/03/10 08:15:44;;;;;;;47.77;25.37;;;6.60;99.90;;;;;;5017201;28;20422;-69
2021/03/10 08:18:10;;;;;;;41.17;24.57;;;6.60;99.90;;;;;;5010299;28;20465;-70
2021/03/10 08:20:37;;;;;;;43.37;23.90;;;6.60;99.90;;;;;;5017616;28;20435;-69
2021/03/10 08:23:04;;;;;;;47.57;24.63;;;6.70;99.90;;;;;;5009674;28;20248;-70
2021/03/10 08:25:30;;;;;;;46.20;24.53;;;6.80;99.90;;;;;;5011082;28;20438;-70
2021/03/10 08:27:56;;;;;;;47.37;27.40;;;6.90;99.90;;;;;;5019825;28;20417;-70
2021/03/10 08:30:23;;;;;;;42.40;26.10;;;7.00;99.90;;;;;;5014056;28;20532;-68
2021/03/10 08:32:49;;;;;;;48.70;26.50;;;7.10;99.90;;;;;;5013399;28;20198;-70
2021/03/10 08:35:23;;;;;;;39.80;25.47;;;7.10;99.90;;;;;;5014293;28;20536;-70
2021/03/10 08:37:53;;;;;;;39.47;25.53;;;7.20;99.90;;;;;;5010787;28;20190;-70
2021/03/10 08:40:23;;;;;;;45.67;23.80;;;7.20;99.90;;;;;;5014165;28;20441;-69
2021/03/10 08:42:49;;;;;;;46.13;24.60;;;7.40;99.90;;;;;;5031798;28;20476;-70
2021/03/10 08:45:29;;;;;;;49.27;27.17;;;7.50;99.90;;;;;;5014519;28;20467;-70
2021/03/10 08:48:02;;;;;;;45.03;25.47;;;7.50;99.90;;;;;;5011252;28;20437;-69
2021/03/10 08:50:43;;;;;;;44.13;24.27;;;7.60;99.90;;;;;;5014348;28;20979;-70
2021/03/10 08:53:12;;;;;;;42.43;24.00;;;7.90;99.90;;;;;;5012177;28;20820;-70
2021/03/10 08:55:38;;;;;;;46.37;26.27;;;8.10;99.90;;;;;;5017721;28;20460;-70
2021/03/10 08:58:11;;;;;;;46.27;24.20;;;8.30;99.90;;;;;;5010464;28;20445;-69
2021/03/10 09:00:38;;;;;;;42.00;24.40;;;8.50;99.90;;;;;;5004918;28;20277;-70
2021/03/10 09:03:15;;;;;;;44.73;25.23;;;8.60;99.90;;;;;;5003825;28;20843;-70
2021/03/10 09:05:41;;;;;;;37.17;23.90;;;8.70;99.90;;;;;;5019483;28;20478;-70
2021/03/10 09:08:14;;;;;;;38.40;22.13;;;8.80;99.90;;;;;;5003946;28;20416;-70
2021/03/10 09:10:46;;;;;;;37.60;22.03;;;8.70;99.90;;;;;;5005486;28;20435;-70
2021/03/10 09:13:12;;;;;;;35.90;21.90;;;8.80;99.90;;;;;;5012438;28;20444;-70
2021/03/10 09:15:38;;;;;;;39.87;22.87;;;8.80;99.90;;;;;;5012388;28;20442;-69
2021/03/10 09:18:07;;;;;;;43.57;24.03;;;8.80;99.90;;;;;;5012665;28;20466;-69
2021/03/10 09:20:44;;;;;;;34.57;21.97;;;8.90;99.90;;;;;;5007431;28;20806;-69
2021/03/10 09:23:10;;;;;;;41.10;23.70;;;9.10;99.90;;;;;;5010111;28;20998;-70
2021/03/10 09:25:38;;;;;;;36.87;23.13;;;9.40;99.90;;;;;;5011807;28;20447;-70
2021/03/10 09:28:11;;;;;;;38.00;21.97;;;9.90;99.90;;;;;;5017282;28;20436;-70
2021/03/10 09:30:47;;;;;;;40.60;22.27;;;10.30;99.90;;;;;;5016383;28;20510;-69
2021/03/10 09:33:24;;;;;;;46.73;24.20;;;10.50;99.90;;;;;;5004808;28;20998;-70
2021/03/10 09:35:58;;;;;;;34.13;21.20;;;10.80;99.90;;;;;;5003079;28;20579;-71
2021/03/10 09:38:25;;;;;;;34.10;21.70;;;10.70;99.90;;;;;;5000308;28;20475;-70
2021/03/10 09:40:54;;;;;;;37.87;22.53;;;10.40;99.90;;;;;;5001572;28;20441;-70
2021/03/10 09:43:25;;;;;;;32.60;20.30;;;10.10;99.90;;;;;;5004635;28;20473;-70
2021/03/10 09:45:56;;;;;;;36.53;19.77;;;9.80;99.90;;;;;;5000446;28;20429;-70
2021/03/10 09:48:37;;;;;;;33.83;20.93;;;9.60;99.90;;;;;;5001621;28;20880;-70
2021/03/10 09:51:12;;;;;;;35.10;20.40;;;9.30;99.90;;;;;;5002532;28;20506;-70
2021/03/10 09:53:41;;;;;;;30.00;18.27;;;9.10;99.90;;;;;;5013122;28;20445;-70
2021/03/10 09:56:08;;;;;;;32.87;17.13;;;9.00;99.90;;;;;;5010046;28;20495;-70
2021/03/10 09:58:46;;;;;;;30.13;18.77;;;9.00;99.90;;;;;;5016726;28;21007;-71
2021/03/10 10:01:11;;;;;;;30.67;17.13;;;9.00;99.90;;;;;;5003148;28;20427;-71
2021/03/10 10:03:37;;;;;;;27.47;14.67;;;9.00;99.90;;;;;;5004136;28;20472;-70
2021/03/10 10:06:09;;;;;;;26.80;14.37;;;9.00;99.90;;;;;;5013307;28;20194;-71
2021/03/10 10:08:35;;;;;;;24.20;15.37;;;9.20;99.90;;;;;;5021693;28;20226;-71
2021/03/10 10:11:05;;;;;;;28.23;17.47;;;9.50;99.90;;;;;;5017434;28;20447;-70
2021/03/10 10:13:31;;;;;;;24.90;15.23;;;9.60;99.90;;;;;;5019820;28;20523;-70
2021/03/10 10:15:56;;;;;;;23.90;15.40;;;9.70;99.90;;;;;;5003936;28;20577;-70
2021/03/10 10:18:23;;;;;;;16.90;9.77;;;9.80;99.90;;;;;;5010668;28;20227;-70
2021/03/10 10:20:49;;;;;;;19.40;11.20;;;9.90;99.90;;;;;;5016901;28;20196;-70
2021/03/10 10:23:15;;;;;;;19.07;11.23;;;9.80;99.90;;;;;;5010583;28;20483;-70
2021/03/10 10:25:40;;;;;;;19.13;13.33;;;9.90;99.90;;;;;;5005855;28;20803;-70
2021/03/10 10:28:06;;;;;;;19.83;12.60;;;10.10;99.90;;;;;;5007360;28;20196;-70
2021/03/10 10:30:32;;;;;;;19.83;10.73;;;10.30;99.90;;;;;;5016423;28;20547;-70
2021/03/10 10:32:57;;;;;;;16.23;9.87;;;10.60;99.90;;;;;;5015507;28;20192;-70
2021/03/10 10:35:23;;;;;;;16.30;10.00;;;10.90;99.90;;;;;;5014962;28;20271;-70
2021/03/10 10:37:48;;;;;;;15.13;10.23;;;11.00;99.90;;;;;;5016942;28;20198;-71
2021/03/10 10:40:20;;;;;;;20.33;10.30;;;10.90;99.90;;;;;;5017393;28;20299;-70
2021/03/10 10:42:46;;;;;;;13.13;7.80;;;10.80;99.90;;;;;;5018992;28;20207;-70
2021/03/10 10:45:13;;;;;;;9.10;5.83;;;10.40;99.90;;;;;;5014343;28;20438;-70
2021/03/10 10:47:39;;;;;;;8.47;5.60;;;10.30;99.90;;;;;;5012192;28;20490;-69
2021/03/10 10:50:06;;;;;;;14.00;6.80;;;10.20;99.90;;;;;;5008443;28;20467;-71
2021/03/10 10:52:33;;;;;;;9.13;5.80;;;10.10;99.90;;;;;;5015333;28;20883;-70
2021/03/10 10:54:59;;;;;;;7.93;5.50;;;10.10;99.90;;;;;;5012592;28;20498;-70
2021/03/10 10:57:25;;;;;;;11.63;5.90;;;9.80;99.90;;;;;;5018025;28;20883;-70
2021/03/10 10:59:50;;;;;;;10.63;6.20;;;9.70;99.90;;;;;;5014828;28;20540;-70
2021/03/10 11:02:16;;;;;;;8.80;6.77;;;9.80;99.90;;;;;;5015258;28;20205;-70
2021/03/10 11:04:42;;;;;;;11.70;5.90;;;10.00;99.90;;;;;;5016449;28;20215;-70
2021/03/10 11:07:08;;;;;;;7.57;5.43;;;10.40;99.90;;;;;;5013142;28;20201;-70
2021/03/10 11:09:34;;;;;;;6.60;5.10;;;10.30;99.90;;;;;;5018697;28;20255;-71
2021/03/10 11:11:59;;;;;;;8.60;6.20;;;10.30;99.90;;;;;;5015136;28;20802;-69
2021/03/10 11:14:25;;;;;;;10.70;5.60;;;10.30;99.90;;;;;;5012955;28;20441;-71
2021/03/10 11:16:51;;;;;;;10.07;6.63;;;10.40;99.90;;;;;;5020825;28;20478;-70
2021/03/10 11:19:16;;;;;;;12.90;7.50;;;10.40;99.90;;;;;;5007059;28;20578;-71
2021/03/10 11:21:42;;;;;;;10.07;6.90;;;10.60;99.90;;;;;;5008533;28;20192;-71
2021/03/10 11:24:08;;;;;;;10.73;6.70;;;10.60;99.90;;;;;;5009167;28;20207;-70
2021/03/10 11:26:34;;;;;;;8.70;6.10;;;10.60;99.90;;;;;;5019420;28;20181;-70
2021/03/10 11:28:59;;;;;;;10.37;6.67;;;10.70;99.90;;;;;;5017258;28;20803;-70
2021/03/10 11:31:25;;;;;;;9.50;6.47;;;10.70;99.90;;;;;;5019316;28;20443;-70
2021/03/10 11:33:51;;;;;;;10.27;6.17;;;10.80;99.90;;;;;;5010503;28;20872;-70
2021/03/10 11:36:16;;;;;;;8.73;5.90;;;10.70;99.90;;;;;;5004478;28;20267;-70
2021/03/10 11:38:42;;;;;;;8.10;5.60;;;10.70;99.90;;;;;;5010899;28;20229;-71
2021/03/10 11:41:09;;;;;;;7.27;5.63;;;10.80;99.90;;;;;;5015723;28;20207;-70
2021/03/10 11:43:34;;;;;;;8.20;6.20;;;10.60;99.90;;;;;;5013087;28;20515;-70
2021/03/10 11:46:00;;;;;;;6.80;5.30;;;10.60;99.90;;;;;;5015480;28;20469;-70
2021/03/10 11:48:25;;;;;;;11.70;6.67;;;10.70;99.90;;;;;;5011589;28;20380;-70
2021/03/10 11:50:51;;;;;;;8.43;6.33;;;10.80;99.90;;;;;;5008552;28;20190;-71
2021/03/10 11:53:16;;;;;;;7.10;4.63;;;10.60;99.90;;;;;;5014614;28;20266;-71
2021/03/10 11:55:42;;;;;;;7.87;6.00;;;10.60;99.90;;;;;;5019975;28;20228;-70
2021/03/10 11:58:08;;;;;;;15.30;6.77;;;10.70;99.90;;;;;;5010427;28;20661;-70
2021/03/10 12:00:33;;;;;;;11.33;6.50;;;10.90;99.90;;;;;;5016592;28;20184;-71
2021/03/10 12:02:59;;;;;;;5.30;4.70;;;10.90;99.90;;;;;;5013955;28;20221;-71
2021/03/10 12:05:24;;;;;;;7.00;4.70;;;11.00;99.90;;;;;;5003700;28;20690;-71
2021/03/10 12:07:51;;;;;;;9.03;5.47;;;11.10;99.90;;;;;;5013926;28;20579;-71
2021/03/10 12:10:17;;;;;;;4.30;3.90;;;11.10;99.90;;;;;;5011685;28;20201;-71
2021/03/10 12:12:43;;;;;;;6.00;4.67;;;11.20;99.90;;;;;;5020443;28;20489;-71
2021/03/10 12:15:09;;;;;;;6.10;5.03;;;11.30;99.90;;;;;;5017070;28;20950;-71
2021/03/10 12:17:36;;;;;;;7.87;4.40;;;11.20;99.90;;;;;;5017043;28;20193;-71
2021/03/10 12:20:03;;;;;;;4.70;3.93;;;11.50;99.90;;;;;;5004077;28;20479;-71
2021/03/10 12:22:29;;;;;;;5.50;4.27;;;11.80;99.90;;;;;;5001610;28;20542;-71
2021/03/10 12:24:54;;;;;;;14.77;4.60;;;11.90;99.90;;;;;;5001615;28;20445;-71
2021/03/10 12:27:23;;;;;;;8.50;5.80;;;11.90;99.90;;;;;;5007977;28;20219;-71
2021/03/10 12:29:53;;;;;;;5.87;4.87;;;11.70;99.90;;;;;;5012321;28;20198;-71
2021/03/10 12:32:20;;;;;;;6.53;5.83;;;11.20;99.90;;;;;;5003232;28;20457;-71
2021/03/10 12:34:46;;;;;;;10.07;5.90;;;11.20;99.90;;;;;;5000876;28;20442;-71
2021/03/10 12:37:12;;;;;;;6.23;5.00;;;11.20;99.90;;;;;;5002882;28;20459;-71
2021/03/10 12:39:38;;;;;;;8.10;5.27;;;11.10;99.90;;;;;;5016659;28;20464;-71
2021/03/10 12:42:06;;;;;;;7.03;4.63;;;11.20;99.90;;;;;;5015027;28;20487;-70